Terminal Aerodrome Forecast
Issued by NWS Corpus Christi, TX

Home | Current Version | Previous Version | Text Only | Print | Product List | Glossary On
Versions: 1 2 3 4 5 6 7 8 9 10 11 12 13
000
FTUS44 KCRP 240500
TAFVCT
TAF
KVCT 240528Z 2406/2506 13005KT P6SM FEW050 BKN250
     FM240900 VRB03KT 4SM BR SCT015
      TEMPO 2410/2414 1SM BR BKN005 BKN015
     FM241500 28003KT P6SM SCT025
     FM242100 14010KT P6SM SCT035=

USA.gov is the U.S. government's official web portal to all federal, state and local government web resources and services.